createdAt,value
2022-12-01T00:01:30.871Z,6.97
2022-12-01T00:03:58.853Z,6.97
2022-12-01T00:06:28.192Z,6.80
2022-12-01T00:09:19.262Z,6.90
2022-12-01T00:11:48.544Z,7.57
2022-12-01T00:14:16.851Z,7.07
2022-12-01T00:16:45.025Z,7.23
2022-12-01T00:19:12.969Z,6.80
2022-12-01T00:21:42.421Z,6.83
2022-12-01T00:24:11.194Z,6.70
2022-12-01T00:26:39.448Z,6.73
2022-12-01T00:29:07.323Z,6.77
2022-12-01T00:31:35.540Z,6.60
2022-12-01T00:34:06.885Z,6.40
2022-12-01T00:36:39.169Z,6.27
2022-12-01T00:39:08.817Z,7.13
2022-12-01T00:41:36.631Z,6.43
2022-12-01T00:44:04.571Z,7.03
2022-12-01T00:46:32.575Z,6.03
2022-12-01T00:49:00.424Z,6.00
2022-12-01T00:51:28.392Z,6.50
2022-12-01T00:53:56.210Z,6.53
2022-12-01T00:56:25.351Z,6.27
2022-12-01T00:58:53.179Z,6.07
2022-12-01T01:01:21.261Z,5.70
2022-12-01T01:03:49.770Z,6.00
2022-12-01T01:06:17.795Z,5.07
2022-12-01T01:08:46.301Z,5.50
2022-12-01T01:11:14.147Z,5.73
2022-12-01T01:13:43.383Z,5.43
2022-12-01T01:16:14.990Z,5.73
2022-12-01T01:18:43.113Z,5.70
2022-12-01T01:21:14.200Z,5.40
2022-12-01T01:23:42.098Z,5.30
2022-12-01T01:26:14.108Z,5.67
2022-12-01T01:28:43.479Z,6.23
2022-12-01T01:31:13.745Z,5.83
2022-12-01T01:33:41.888Z,5.87
2022-12-01T01:36:10.644Z,5.90
2022-12-01T01:38:38.944Z,5.93
2022-12-01T01:41:08.184Z,5.83
2022-12-01T01:43:46.684Z,6.13
2022-12-01T01:46:17.435Z,5.77
2022-12-01T01:48:49.027Z,5.67
2022-12-01T01:51:20.371Z,6.20
2022-12-01T01:53:50.867Z,5.80
2022-12-01T01:56:19.056Z,5.83
2022-12-01T01:58:48.452Z,6.57
2022-12-01T02:01:17.073Z,5.87
2022-12-01T02:03:46.293Z,6.20
2022-12-01T02:06:14.704Z,6.10
2022-12-01T02:08:42.503Z,5.90
2022-12-01T02:11:33.127Z,6.30
2022-12-01T02:14:09.546Z,5.87
2022-12-01T02:16:45.966Z,6.00
2022-12-01T02:19:37.920Z,6.70
2022-12-01T02:22:20.078Z,6.40
2022-12-01T02:25:20.628Z,6.20
2022-12-01T02:28:22.048Z,6.70
2022-12-01T02:30:53.057Z,6.70
2022-12-01T02:33:29.072Z,6.07
2022-12-01T02:36:02.707Z,6.30
2022-12-01T02:38:34.447Z,6.80
2022-12-01T02:41:10.347Z,6.30
2022-12-01T02:43:46.727Z,6.40
2022-12-01T02:46:21.646Z,6.37
2022-12-01T02:48:52.620Z,6.33
2022-12-01T02:51:23.928Z,6.47
2022-12-01T02:53:52.463Z,6.20
2022-12-01T02:56:24.308Z,6.33
2022-12-01T02:58:52.732Z,6.93
2022-12-01T03:01:41.330Z,6.50
2022-12-01T03:04:46.316Z,6.87
2022-12-01T03:07:27.803Z,6.60
2022-12-01T03:10:04.925Z,6.33
2022-12-01T03:12:38.899Z,6.90
2022-12-01T03:15:10.680Z,6.53
2022-12-01T03:17:46.258Z,6.77
2022-12-01T03:20:19.848Z,7.20
2022-12-01T03:22:53.888Z,7.07
2022-12-01T03:25:26.241Z,7.43
2022-12-01T03:28:20.207Z,7.60
2022-12-01T03:30:46.308Z,7.10
2022-12-01T03:33:22.847Z,7.30
2022-12-01T03:35:55.212Z,7.03
2022-12-01T03:38:25.898Z,7.83
2022-12-01T03:40:59.038Z,7.77
2022-12-01T03:43:31.712Z,7.90
2022-12-01T03:46:05.708Z,7.43
2022-12-01T03:48:35.573Z,7.10
2022-12-01T03:51:10.808Z,7.33
2022-12-01T03:53:48.162Z,7.73
2022-12-01T03:56:20.845Z,8.47
2022-12-01T03:58:52.173Z,8.33
2022-12-01T04:01:22.285Z,7.57
2022-12-01T04:03:51.589Z,8.07
2022-12-01T04:06:19.464Z,7.73
2022-12-01T04:08:47.313Z,8.57
2022-12-01T04:11:33.107Z,7.97
2022-12-01T04:14:01.031Z,8.27
2022-12-01T04:16:29.116Z,8.60
2022-12-01T04:18:58.503Z,8.37
2022-12-01T04:21:26.325Z,9.57
2022-12-01T04:24:10.893Z,8.80
2022-12-01T04:26:39.421Z,8.80
2022-12-01T04:29:10.869Z,8.87
2022-12-01T04:31:39.288Z,8.47
2022-12-01T04:34:09.035Z,8.97
2022-12-01T04:36:36.869Z,9.20
2022-12-01T04:39:05.224Z,9.07
2022-12-01T04:41:33.177Z,8.20
2022-12-01T04:44:01.013Z,9.87
2022-12-01T04:46:28.966Z,9.43
2022-12-01T04:48:56.875Z,9.90
2022-12-01T04:51:26.122Z,9.40
2022-12-01T04:53:54.020Z,9.53
2022-12-01T04:56:21.940Z,9.73
2022-12-01T04:58:49.799Z,9.33
2022-12-01T05:01:19.302Z,10.60
2022-12-01T05:03:49.383Z,9.37
2022-12-01T05:06:19.536Z,9.77
2022-12-01T05:08:49.203Z,8.83
2022-12-01T05:11:18.023Z,9.33
2022-12-01T05:13:47.520Z,9.73
2022-12-01T05:16:17.386Z,10.07
2022-12-01T05:18:49.415Z,9.90
2022-12-01T05:24:40.009Z,10.67
2022-12-01T06:23:01.093Z,12.87
2022-12-01T06:28:36.948Z,13.47
2022-12-01T06:31:06.715Z,14.53
2022-12-01T07:55:03.456Z,15.50
2022-12-01T07:57:32.060Z,16.07
2022-12-01T08:00:00.977Z,14.70
2022-12-01T08:06:00.980Z,14.93
2022-12-01T09:56:56.015Z,10.87
2022-12-01T10:46:31.530Z,5.63
2022-12-01T10:49:12.047Z,5.53
2022-12-01T10:51:57.251Z,5.70
2022-12-01T10:54:34.301Z,6.30
2022-12-01T10:57:04.607Z,6.43
2022-12-01T10:59:39.327Z,6.43
2022-12-01T11:02:24.511Z,6.63
2022-12-01T11:05:01.373Z,6.93
2022-12-01T11:07:44.684Z,7.20
2022-12-01T11:10:22.190Z,6.90
2022-12-01T11:13:01.046Z,7.47
2022-12-01T11:15:34.991Z,7.13
2022-12-01T11:18:11.506Z,6.57
2022-12-01T11:20:42.409Z,6.70
2022-12-01T11:23:30.258Z,6.70
2022-12-01T11:26:11.543Z,6.07
2022-12-01T11:28:53.552Z,7.10
2022-12-01T11:31:27.231Z,6.53
2022-12-01T11:33:58.868Z,7.23
2022-12-01T11:36:40.464Z,7.60
2022-12-01T11:39:27.361Z,7.93
2022-12-01T11:42:03.602Z,8.13
2022-12-01T11:44:50.723Z,9.10
2022-12-01T11:47:26.859Z,7.93
2022-12-01T11:50:02.704Z,9.00
2022-12-01T11:52:44.412Z,9.43
2022-12-01T11:55:24.580Z,9.30
2022-12-01T11:58:00.753Z,9.27
2022-12-01T12:00:32.841Z,9.13
2022-12-01T12:03:26.476Z,9.07
2022-12-01T12:06:39.356Z,8.67
2022-12-01T12:09:27.317Z,10.13
2022-12-01T12:12:08.361Z,10.13
2022-12-01T12:14:58.641Z,10.93
2022-12-01T12:17:53.484Z,10.00
2022-12-01T12:20:53.435Z,9.57
2022-12-01T12:23:51.651Z,10.50
2022-12-01T12:26:27.513Z,10.63
2022-12-01T12:29:15.109Z,11.13
2022-12-01T12:32:00.789Z,11.27
2022-12-01T12:34:50.462Z,12.53
2022-12-01T12:37:26.412Z,12.27
2022-12-01T12:40:27.813Z,12.77
2022-12-01T12:43:08.877Z,12.63
2022-12-01T12:45:56.139Z,13.20
2022-12-01T12:49:11.711Z,13.03
2022-12-01T12:51:41.243Z,13.73
2022-12-01T12:54:23.191Z,13.90
2022-12-01T12:57:05.065Z,14.40
2022-12-01T12:59:51.052Z,15.33
2022-12-01T13:02:27.990Z,15.57
2022-12-01T13:05:03.829Z,15.27
2022-12-01T13:07:38.820Z,16.40
2022-12-01T13:10:18.286Z,16.80
2022-12-01T13:12:56.171Z,17.10
2022-12-01T13:15:28.200Z,17.87
2022-12-01T13:18:05.058Z,18.57
2022-12-01T13:20:37.833Z,19.07
2022-12-01T13:23:10.076Z,18.90
2022-12-01T13:25:41.442Z,20.13
2022-12-01T13:28:19.885Z,19.97
2022-12-01T13:31:01.774Z,19.60
2022-12-01T13:33:31.671Z,19.43
2022-12-01T13:36:38.212Z,21.37
2022-12-01T13:39:04.040Z,21.47
2022-12-01T13:41:39.481Z,21.00
2022-12-01T13:44:22.057Z,20.83
2022-12-01T13:46:54.043Z,21.17
2022-12-01T13:49:47.629Z,21.00
2022-12-01T13:52:28.787Z,21.70
2022-12-01T13:55:24.218Z,21.00
2022-12-01T13:58:26.323Z,22.30
2022-12-01T14:01:49.602Z,22.10
2022-12-01T14:04:35.786Z,21.43
2022-12-01T14:07:39.758Z,20.50
2022-12-01T14:10:31.819Z,22.20
2022-12-01T14:13:07.257Z,21.10
2022-12-01T14:15:42.724Z,21.03
2022-12-01T14:18:34.906Z,20.57
2022-12-01T14:21:19.524Z,20.17
2022-12-01T14:24:08.847Z,20.70
2022-12-01T14:26:45.448Z,19.53
2022-12-01T14:29:29.613Z,19.90
2022-12-01T14:32:24.995Z,21.07
2022-12-01T14:35:01.101Z,20.70
2022-12-01T14:37:38.350Z,19.90
2022-12-01T14:40:14.271Z,20.30
2022-12-01T14:43:03.736Z,22.63
2022-12-01T14:45:36.634Z,20.27
2022-12-01T14:48:06.717Z,21.27
2022-12-01T14:50:46.206Z,22.03
2022-12-01T14:53:24.643Z,19.23
2022-12-01T14:55:57.616Z,22.13
2022-12-01T14:58:29.715Z,21.10
2022-12-01T15:01:07.514Z,21.17
2022-12-01T15:03:39.516Z,21.30
2022-12-01T15:06:09.846Z,21.33
2022-12-01T15:08:45.777Z,21.03
2022-12-01T15:11:25.579Z,21.93
2022-12-01T15:13:55.750Z,21.20
2022-12-01T15:16:25.754Z,21.37
2022-12-01T15:18:54.301Z,21.90
2022-12-01T15:21:27.124Z,24.30
2022-12-01T15:24:00.786Z,22.07
2022-12-01T15:26:31.990Z,22.07
2022-12-01T15:29:17.340Z,20.00
2022-12-01T15:31:47.618Z,21.60
2022-12-01T15:34:20.724Z,21.70
2022-12-01T15:36:51.368Z,19.43
2022-12-01T15:39:21.456Z,21.30
2022-12-01T15:41:53.945Z,21.27
2022-12-01T15:44:27.153Z,21.43
2022-12-01T15:46:55.255Z,22.63
2022-12-01T15:49:29.560Z,22.80
2022-12-01T15:52:08.393Z,23.37
2022-12-01T15:54:37.721Z,24.10
2022-12-01T15:57:06.801Z,24.20
2022-12-01T15:59:39.084Z,22.93
2022-12-01T16:02:16.211Z,23.60
2022-12-01T16:04:44.764Z,23.80
2022-12-01T16:07:15.243Z,22.73
2022-12-01T16:09:55.887Z,24.27
2022-12-01T16:12:25.942Z,23.03
2022-12-01T16:15:13.080Z,24.83
2022-12-01T16:17:46.277Z,23.67
2022-12-01T16:20:25.701Z,23.77
2022-12-01T16:22:58.747Z,24.90
2022-12-01T16:25:35.360Z,22.97
2022-12-01T16:28:04.238Z,22.40
2022-12-01T16:30:37.783Z,23.50
2022-12-01T16:33:08.319Z,22.47
2022-12-01T16:35:36.350Z,25.03
2022-12-01T16:38:15.825Z,23.57
2022-12-01T16:41:07.790Z,23.47
2022-12-01T16:43:36.422Z,23.50
2022-12-01T16:46:07.900Z,22.90
2022-12-01T16:48:44.982Z,24.07
2022-12-01T16:51:17.278Z,23.53
2022-12-01T16:53:53.527Z,23.23
2022-12-01T16:56:23.362Z,24.00
2022-12-01T16:58:51.296Z,24.43
2022-12-01T17:01:19.481Z,24.03
2022-12-01T17:03:47.390Z,22.73
2022-12-01T17:06:18.845Z,24.37
2022-12-01T17:08:46.780Z,25.07
2022-12-01T17:11:16.049Z,24.63
2022-12-01T17:13:44.098Z,23.00
2022-12-01T17:16:18.740Z,23.60
2022-12-01T17:18:46.887Z,22.27
2022-12-01T17:21:15.397Z,22.93
2022-12-01T17:23:43.272Z,24.93
2022-12-01T17:26:13.220Z,26.53
2022-12-01T17:28:42.837Z,24.60
2022-12-01T17:31:11.281Z,24.20
2022-12-01T17:33:39.522Z,21.80
2022-12-01T17:36:11.568Z,22.97
2022-12-01T17:38:41.887Z,23.33
2022-12-01T17:41:12.209Z,24.30
2022-12-01T17:43:42.492Z,25.43
2022-12-01T17:46:13.128Z,23.67
2022-12-01T17:48:42.986Z,23.40
2022-12-01T17:51:12.386Z,24.13
2022-12-01T17:53:40.558Z,22.60
2022-12-01T17:56:09.949Z,22.50
2022-12-01T17:58:38.604Z,23.37
2022-12-01T18:01:13.189Z,23.20
2022-12-01T18:03:41.798Z,23.47
2022-12-01T18:06:10.440Z,22.40
2022-12-01T18:08:39.627Z,24.07
2022-12-01T18:11:10.277Z,23.17
2022-12-01T18:13:39.355Z,23.13
2022-12-01T18:16:11.100Z,22.50
2022-12-01T18:18:40.520Z,22.93
2022-12-01T18:21:09.651Z,23.93
2022-12-01T18:23:38.082Z,23.90
2022-12-01T18:26:12.143Z,23.00
2022-12-01T18:28:43.406Z,23.00
2022-12-01T18:31:16.443Z,23.57
2022-12-01T18:33:46.048Z,23.80
2022-12-01T18:36:17.991Z,23.33
2022-12-01T18:38:54.443Z,24.60
2022-12-01T18:41:22.410Z,24.23
2022-12-01T18:43:50.604Z,24.57
2022-12-01T18:46:21.121Z,24.67
2022-12-01T18:48:53.257Z,23.67
2022-12-01T18:51:22.217Z,25.57
2022-12-01T18:53:54.812Z,24.93
2022-12-01T18:56:22.842Z,25.13
2022-12-01T18:58:57.242Z,25.80
2022-12-01T19:01:31.856Z,25.83
2022-12-01T19:04:00.684Z,25.10
2022-12-01T19:06:30.766Z,25.93
2022-12-01T19:09:01.413Z,26.07
2022-12-01T19:11:30.054Z,25.03
2022-12-01T19:13:58.947Z,24.57
2022-12-01T19:16:31.041Z,26.17
2022-12-01T19:18:59.099Z,24.70
2022-12-01T19:21:27.006Z,26.07
2022-12-01T19:23:55.193Z,25.43
2022-12-01T19:26:25.482Z,26.10
2022-12-01T19:28:53.756Z,25.53
2022-12-01T19:31:23.851Z,25.83
2022-12-01T19:33:54.692Z,25.87
2022-12-01T19:36:25.066Z,24.63
2022-12-01T19:38:53.926Z,25.07
2022-12-01T19:41:25.303Z,25.97
2022-12-01T19:43:56.209Z,23.73
2022-12-01T19:46:27.102Z,24.60
2022-12-01T19:49:00.117Z,23.13
2022-12-01T19:51:31.224Z,22.57
2022-12-01T19:53:59.695Z,22.50
2022-12-01T19:56:28.951Z,22.50
2022-12-01T19:58:58.502Z,22.57
2022-12-01T20:01:27.379Z,21.13
2022-12-01T20:03:56.743Z,21.43
2022-12-01T20:06:26.819Z,22.13
2022-12-01T20:08:56.569Z,21.30
2022-12-01T20:11:24.571Z,20.47
2022-12-01T20:13:53.997Z,18.90
2022-12-01T20:16:24.193Z,17.30
2022-12-01T20:18:52.773Z,18.70
2022-12-01T20:21:24.267Z,19.33
2022-12-01T20:23:55.244Z,17.57
2022-12-01T20:26:28.961Z,18.13
2022-12-01T20:29:01.457Z,18.33
2022-12-01T20:31:31.650Z,18.60
2022-12-01T20:34:01.714Z,18.00
2022-12-01T20:36:31.850Z,18.43
2022-12-01T20:39:00.713Z,17.60
2022-12-01T20:41:28.688Z,19.03
2022-12-01T20:43:56.657Z,18.30
2022-12-01T20:46:24.746Z,16.97
2022-12-01T20:48:53.014Z,19.03
2022-12-01T20:51:20.929Z,18.90
2022-12-01T20:54:19.659Z,18.37
2022-12-01T20:56:39.386Z,18.03
2022-12-01T20:59:07.889Z,18.93
2022-12-01T21:01:36.313Z,17.63
2022-12-01T21:04:06.129Z,18.07
2022-12-01T21:06:34.003Z,18.60
2022-12-01T21:09:04.091Z,17.27
2022-12-01T21:11:53.611Z,18.90
2022-12-01T21:14:25.794Z,18.43
2022-12-01T21:16:57.843Z,18.03
2022-12-01T21:19:31.890Z,19.40
2022-12-01T21:22:00.208Z,18.23
2022-12-01T21:24:36.772Z,18.00
2022-12-01T21:27:14.044Z,19.20
2022-12-01T21:29:45.025Z,17.57
2022-12-01T21:32:15.366Z,19.10
2022-12-01T21:34:44.806Z,18.80
2022-12-01T21:37:24.327Z,17.40
2022-12-01T21:39:58.370Z,18.13
2022-12-01T21:42:28.778Z,18.47
2022-12-01T21:44:57.745Z,18.97
2022-12-01T21:47:28.597Z,18.37
2022-12-01T21:49:58.839Z,18.93
2022-12-01T21:52:31.825Z,18.53
2022-12-01T21:55:31.209Z,18.97
2022-12-01T21:57:59.210Z,18.03
2022-12-01T22:00:30.050Z,17.97
2022-12-01T22:03:32.402Z,17.87
2022-12-01T22:06:30.137Z,18.77
2022-12-01T22:09:02.050Z,18.00
2022-12-01T22:11:32.195Z,17.60
2022-12-01T22:14:13.824Z,16.53
2022-12-01T22:16:43.955Z,17.50
2022-12-01T22:19:26.018Z,17.70
2022-12-01T22:22:00.600Z,17.00
2022-12-01T22:24:33.858Z,17.70
2022-12-01T22:27:22.388Z,17.17
2022-12-01T22:29:53.303Z,17.33
2022-12-01T22:32:45.468Z,17.13
2022-12-01T22:35:34.364Z,17.53
2022-12-01T22:38:29.881Z,17.57
2022-12-01T22:41:00.087Z,17.33
2022-12-01T22:43:33.494Z,17.80
2022-12-01T22:46:30.815Z,17.93
2022-12-01T22:49:00.404Z,16.07
2022-12-01T22:51:42.400Z,16.03
2022-12-01T22:54:35.805Z,16.30
2022-12-01T22:57:12.798Z,17.40
2022-12-01T22:59:44.446Z,15.13
2022-12-01T23:02:21.099Z,16.40
2022-12-01T23:04:52.334Z,16.20
2022-12-01T23:07:33.489Z,17.00
2022-12-01T23:22:40.126Z,15.50
2022-12-01T23:25:15.025Z,15.97
2022-12-01T23:27:43.855Z,16.20
2022-12-01T23:30:13.909Z,16.07
2022-12-01T23:32:42.416Z,15.53
2022-12-01T23:35:16.675Z,15.53
2022-12-01T23:37:48.769Z,16.10
2022-12-01T23:40:30.952Z,15.97
2022-12-01T23:43:00.462Z,15.70
2022-12-01T23:45:29.129Z,15.23
2022-12-01T23:47:57.884Z,14.90
2022-12-01T23:50:27.870Z,15.40
2022-12-01T23:52:57.608Z,15.33
2022-12-01T23:55:29.447Z,15.97
2022-12-01T23:57:59.302Z,15.37
